createdAt,value
2022-07-29T00:01:59.529Z,100093.53
2022-07-29T00:07:02.851Z,100097.50
2022-07-29T00:12:06.322Z,100096.34
2022-07-29T00:17:12.653Z,100096.19
2022-07-29T00:22:22.154Z,100095.81
2022-07-29T00:27:25.032Z,100093.28
2022-07-29T00:32:29.265Z,100102.13
2022-07-29T00:37:32.108Z,100100.16
2022-07-29T00:42:51.013Z,100091.66
2022-07-29T00:47:53.812Z,100095.09
2022-07-29T00:52:56.886Z,100091.47
2022-07-29T00:58:00.847Z,100092.16
2022-07-29T01:03:04.618Z,100091.59
2022-07-29T01:08:08.899Z,100092.09
2022-07-29T01:13:13.009Z,100089.06
2022-07-29T01:18:35.110Z,100077.34
2022-07-29T01:24:28.300Z,100089.69
2022-07-29T01:29:42.637Z,100089.03
2022-07-29T01:35:02.953Z,100074.88
2022-07-29T01:40:12.120Z,100078.75
2022-07-29T01:46:01.899Z,100074.84
2022-07-29T01:51:28.531Z,100074.75
2022-07-29T01:56:34.749Z,100076.28
2022-07-29T02:01:40.763Z,100073.50
2022-07-29T02:06:45.464Z,100072.59
2022-07-29T02:11:54.473Z,100073.31
2022-07-29T02:16:59.431Z,100075.63
2022-07-29T02:22:03.067Z,100062.00
2022-07-29T02:27:06.044Z,100058.16
2022-07-29T02:32:12.246Z,100053.22
2022-07-29T02:37:18.079Z,100062.03
2022-07-29T02:42:25.052Z,100053.63
2022-07-29T02:47:41.525Z,100062.19
2022-07-29T02:53:13.122Z,100056.72
2022-07-29T02:58:38.584Z,100052.47
2022-07-29T03:03:45.712Z,100054.16
2022-07-29T03:08:50.544Z,100060.50
2022-07-29T03:13:54.012Z,100069.22
2022-07-29T03:18:57.275Z,100068.75
2022-07-29T03:24:00.122Z,100069.13
2022-07-29T03:29:03.111Z,100068.84
2022-07-29T03:34:05.957Z,100073.22
2022-07-29T03:39:11.904Z,100070.03
2022-07-29T03:44:16.877Z,100065.56
2022-07-29T03:49:22.881Z,100072.47
2022-07-29T03:54:25.835Z,100069.31
2022-07-29T03:59:31.534Z,100071.31
2022-07-29T04:04:36.252Z,100077.66
2022-07-29T04:09:39.241Z,100081.06
2022-07-29T04:14:44.856Z,100083.88
2022-07-29T04:19:47.703Z,100091.03
2022-07-29T04:24:50.506Z,100075.44
2022-07-29T04:29:56.744Z,100087.56
2022-07-29T04:35:00.400Z,100080.97
2022-07-29T04:40:04.615Z,100081.19
2022-07-29T04:45:08.009Z,100077.41
2022-07-29T04:50:11.671Z,100083.25
2022-07-29T04:55:14.525Z,100084.28
2022-07-29T05:00:17.953Z,100081.81
2022-07-29T05:05:20.848Z,100081.88
2022-07-29T05:10:24.146Z,100079.63
2022-07-29T05:15:26.964Z,100073.63
2022-07-29T05:20:31.605Z,100081.47
2022-07-29T05:25:43.433Z,100083.59
2022-07-29T05:30:48.160Z,100091.75
2022-07-29T05:35:50.992Z,100084.47
2022-07-29T05:40:53.758Z,100089.16
2022-07-29T05:45:57.335Z,100085.72
2022-07-29T05:51:00.273Z,100085.50
2022-07-29T05:56:06.664Z,100082.59
2022-07-29T06:01:09.461Z,100078.00
2022-07-29T06:06:12.407Z,100085.84
2022-07-29T06:11:15.205Z,100086.94
2022-07-29T06:16:28.885Z,100086.13
2022-07-29T06:21:33.402Z,100085.81
2022-07-29T06:26:39.741Z,100079.50
2022-07-29T06:31:43.006Z,100092.44
2022-07-29T06:36:46.022Z,100086.84
2022-07-29T06:41:51.572Z,100089.34
2022-07-29T06:46:55.771Z,100090.00
2022-07-29T06:51:58.649Z,100091.69
2022-07-29T06:57:01.408Z,100099.88
2022-07-29T07:02:04.412Z,100093.13
2022-07-29T07:07:07.276Z,100098.84
2022-07-29T07:12:10.400Z,100095.31
2022-07-29T07:17:13.122Z,100095.59
2022-07-29T07:22:15.985Z,100087.16
2022-07-29T07:27:18.938Z,100081.16
2022-07-29T07:32:21.817Z,100075.66
2022-07-29T07:37:25.841Z,100085.22
2022-07-29T07:42:29.136Z,100072.66
2022-07-29T07:47:32.147Z,100068.75
2022-07-29T07:52:51.714Z,100067.03
2022-07-29T07:57:55.860Z,100064.75
2022-07-29T08:02:58.755Z,100064.06
2022-07-29T08:08:01.621Z,100060.19
2022-07-29T08:13:07.641Z,100057.03
2022-07-29T08:18:10.797Z,100051.16
2022-07-29T08:23:13.581Z,100054.16
2022-07-29T08:28:16.801Z,100042.53
2022-07-29T08:33:19.643Z,100043.56
2022-07-29T08:38:22.668Z,100045.28
2022-07-29T08:43:26.645Z,100039.91
2022-07-29T08:48:29.465Z,100043.50
2022-07-29T08:53:33.238Z,100036.41
2022-07-29T08:58:36.851Z,100034.56
2022-07-29T09:03:42.566Z,100029.06
2022-07-29T09:08:47.631Z,100025.09
2022-07-29T09:13:50.941Z,100019.41
2022-07-29T09:18:53.817Z,100015.91
2022-07-29T09:24:12.765Z,100012.88
2022-07-29T09:29:19.977Z,100012.78
2022-07-29T09:34:29.515Z,100010.25
2022-07-29T09:39:38.233Z,100005.38
2022-07-29T09:44:50.334Z,100003.50
2022-07-29T09:49:59.366Z,99994.81
2022-07-29T09:55:17.847Z,99986.47
2022-07-29T10:00:24.017Z,99986.38
2022-07-29T10:05:36.618Z,99985.91
2022-07-29T10:10:43.142Z,99978.75
2022-07-29T10:15:47.366Z,99972.53
2022-07-29T10:20:51.104Z,99972.81
2022-07-29T10:25:54.338Z,99973.38
2022-07-29T10:31:06.444Z,99957.94
2022-07-29T10:37:06.462Z,99954.31
2022-07-29T10:42:34.359Z,99941.75
2022-07-29T10:47:38.137Z,99944.69
2022-07-29T10:53:04.913Z,99943.16
2022-07-29T10:58:24.695Z,99931.56
2022-07-29T11:03:49.266Z,99931.22
2022-07-29T11:09:35.309Z,99932.00
2022-07-29T11:14:53.239Z,99919.88
2022-07-29T11:20:45.786Z,99906.25
2022-07-29T11:26:28.315Z,99899.69
2022-07-29T11:31:49.440Z,99906.59
2022-07-29T11:37:13.662Z,99902.03
2022-07-29T11:42:28.276Z,99887.72
2022-07-29T11:47:39.700Z,99880.88
2022-07-29T11:52:49.891Z,99889.09
2022-07-29T11:58:03.961Z,99882.03
2022-07-29T12:03:10.451Z,99872.88
2022-07-29T12:08:20.910Z,99870.81
2022-07-29T12:13:37.408Z,99864.13
2022-07-29T12:18:40.864Z,99863.44
2022-07-29T12:23:55.288Z,99848.31
2022-07-29T12:28:58.336Z,99848.75
2022-07-29T12:34:05.369Z,99835.84
2022-07-29T12:39:10.135Z,99829.66
2022-07-29T12:44:13.122Z,99826.69
2022-07-29T12:49:24.092Z,99828.16
2022-07-29T12:54:27.255Z,99816.63
2022-07-29T12:59:30.138Z,99812.88
2022-07-29T13:04:36.625Z,99799.88
2022-07-29T13:09:42.944Z,99805.56
2022-07-29T13:14:48.997Z,99793.69
2022-07-29T13:19:54.484Z,99797.16
2022-07-29T13:25:07.635Z,99779.38
2022-07-29T13:30:11.675Z,99778.69
2022-07-29T13:35:14.615Z,99781.16
2022-07-29T13:40:17.396Z,99773.91
2022-07-29T13:45:20.275Z,99765.38
2022-07-29T13:50:23.142Z,99768.03
2022-07-29T13:55:26.671Z,99752.78
2022-07-29T14:00:29.635Z,99752.91
2022-07-29T14:05:32.470Z,99753.50
2022-07-29T14:10:35.252Z,99740.91
2022-07-29T14:15:39.392Z,99732.88
2022-07-29T14:20:42.453Z,99725.56
2022-07-29T14:25:45.302Z,99720.69
2022-07-29T14:30:48.782Z,99724.59
2022-07-29T14:35:51.829Z,99721.91
2022-07-29T14:40:54.624Z,99703.84
2022-07-29T14:46:02.881Z,99705.31
2022-07-29T14:51:08.815Z,99706.22
2022-07-29T14:56:35.427Z,99700.84
2022-07-29T15:01:34.627Z,99694.13
2022-07-29T15:06:37.507Z,99678.22
2022-07-29T15:11:40.323Z,99683.78
2022-07-29T15:16:46.486Z,99685.59
2022-07-29T15:21:51.183Z,99686.94
2022-07-29T15:26:54.739Z,99684.69
2022-07-29T15:31:58.078Z,99677.25
2022-07-29T15:37:01.669Z,99682.81
2022-07-29T15:42:04.977Z,99676.63
2022-07-29T15:47:07.920Z,99664.53
2022-07-29T15:52:11.331Z,99659.69
2022-07-29T15:57:15.402Z,99652.19
2022-07-29T16:02:18.233Z,99655.19
2022-07-29T16:07:21.255Z,99647.22
2022-07-29T16:12:26.930Z,99651.53
2022-07-29T16:17:29.895Z,99651.09
2022-07-29T16:22:32.801Z,99647.75
2022-07-29T16:27:37.771Z,99664.50
2022-07-29T16:32:41.100Z,99659.03
2022-07-29T16:37:43.943Z,99660.47
2022-07-29T16:42:47.474Z,99655.38
2022-07-29T16:47:50.623Z,99655.28
2022-07-29T16:52:54.208Z,99649.94
2022-07-29T16:57:57.828Z,99650.41
2022-07-29T17:03:00.664Z,99656.63
2022-07-29T17:08:03.698Z,99645.72
2022-07-29T17:13:06.526Z,99654.41
2022-07-29T17:18:13.246Z,99652.91
2022-07-29T17:23:15.986Z,99655.28
2022-07-29T17:28:18.886Z,99661.84
2022-07-29T17:33:21.670Z,99654.88
2022-07-29T17:38:24.505Z,99656.50
2022-07-29T17:43:27.265Z,99655.78
2022-07-29T17:48:30.212Z,99661.63
2022-07-29T17:53:33.096Z,99661.22
2022-07-29T17:58:35.975Z,99662.69
2022-07-29T18:03:38.879Z,99672.88
2022-07-29T18:08:41.908Z,99681.88
2022-07-29T18:13:44.881Z,99694.72
2022-07-29T18:18:47.873Z,99710.31
2022-07-29T18:23:52.703Z,99713.16
2022-07-29T18:28:55.450Z,99718.59
2022-07-29T18:34:00.085Z,99726.31
2022-07-29T18:39:03.320Z,99741.09
2022-07-29T18:44:06.124Z,99750.19
2022-07-29T18:49:09.329Z,99752.13
2022-07-29T18:54:12.940Z,99755.91
2022-07-29T18:59:17.236Z,99755.84
2022-07-29T19:04:20.034Z,99771.59
2022-07-29T19:09:22.906Z,99772.53
2022-07-29T19:14:25.817Z,99778.38
2022-07-29T19:19:28.682Z,99777.09
2022-07-29T19:24:31.455Z,99782.63
2022-07-29T19:29:35.355Z,99776.78
2022-07-29T19:34:38.402Z,99781.63
2022-07-29T19:39:41.229Z,99780.06
2022-07-29T19:44:44.065Z,99776.38
2022-07-29T19:49:46.854Z,99774.03
2022-07-29T19:54:49.700Z,99775.53
2022-07-29T19:59:52.972Z,99773.47
2022-07-29T20:04:55.780Z,99775.47
2022-07-29T20:09:58.748Z,99779.91
2022-07-29T20:15:02.017Z,99779.34
2022-07-29T20:20:06.253Z,99776.44
2022-07-29T20:25:10.111Z,99778.09
2022-07-29T20:30:14.220Z,99791.75
2022-07-29T20:35:17.047Z,99798.59
2022-07-29T20:40:23.260Z,99812.81
2022-07-29T20:45:26.506Z,99812.34
2022-07-29T20:50:29.249Z,99824.66
2022-07-29T20:55:32.938Z,99827.13
2022-07-29T21:00:35.920Z,99842.16
2022-07-29T21:05:39.005Z,99827.50
2022-07-29T21:10:45.838Z,99832.44
2022-07-29T21:15:50.212Z,99842.59
2022-07-29T21:20:55.523Z,99840.19
2022-07-29T21:25:58.992Z,99832.91
2022-07-29T21:31:06.833Z,99849.00
2022-07-29T21:36:46.124Z,99847.38
2022-07-29T21:41:35.314Z,99857.75
2022-07-29T21:46:38.369Z,99845.50
2022-07-29T21:51:41.408Z,99864.28
2022-07-29T21:56:44.243Z,99865.38
2022-07-29T22:01:54.185Z,99876.25
2022-07-29T22:06:58.811Z,99880.63
2022-07-29T22:12:02.711Z,99889.59
2022-07-29T22:17:05.559Z,99881.72
2022-07-29T22:22:08.599Z,99873.81
2022-07-29T22:27:11.791Z,99873.78
2022-07-29T22:32:14.594Z,99885.47
2022-07-29T22:37:17.634Z,99871.59
2022-07-29T22:42:20.474Z,99868.31
2022-07-29T22:47:38.712Z,99860.94
2022-07-29T22:52:47.157Z,99874.50
2022-07-29T22:57:50.430Z,99855.47
2022-07-29T23:02:53.180Z,99855.38
2022-07-29T23:07:56.113Z,99855.91
2022-07-29T23:12:58.937Z,99847.72
2022-07-29T23:18:01.841Z,99856.13
2022-07-29T23:23:04.979Z,99838.50
2022-07-29T23:28:11.631Z,99834.41
2022-07-29T23:33:16.159Z,99823.81
2022-07-29T23:38:19.035Z,99817.81
2022-07-29T23:43:21.743Z,99819.13
2022-07-29T23:48:24.798Z,99816.41
2022-07-29T23:53:28.604Z,99824.22
2022-07-29T23:58:32.023Z,99840.72
